createdAt,value
2019-05-22T00:01:29.818Z,18.97
2019-05-22T00:04:20.773Z,17.90
2019-05-22T00:06:55.779Z,19.27
2019-05-22T00:09:38.967Z,19.47
2019-05-22T00:12:21.504Z,19.63
2019-05-22T00:14:56.817Z,19.40
2019-05-22T00:17:32.378Z,18.70
2019-05-22T00:20:06.808Z,20.33
2019-05-22T00:22:39.330Z,20.07
2019-05-22T00:25:14.059Z,20.07
2019-05-22T00:27:47.558Z,20.93
2019-05-22T00:30:23.553Z,20.97
2019-05-22T00:32:56.658Z,18.67
2019-05-22T00:35:31.840Z,18.93
2019-05-22T00:38:07.727Z,20.80
2019-05-22T00:40:49.128Z,20.23
2019-05-22T00:43:31.437Z,17.10
2019-05-22T00:46:08.207Z,20.57
2019-05-22T00:48:41.929Z,20.67
2019-05-22T00:51:30.129Z,20.27
2019-05-22T00:54:24.026Z,17.97
2019-05-22T00:57:04.716Z,18.00
2019-05-22T00:59:45.766Z,21.17
2019-05-22T01:02:19.297Z,20.20
2019-05-22T01:04:52.206Z,17.43
2019-05-22T01:07:30.763Z,16.83
2019-05-22T01:10:04.473Z,16.30
2019-05-22T01:12:43.157Z,19.93
2019-05-22T01:15:19.708Z,16.67
2019-05-22T01:17:51.265Z,15.77
2019-05-22T01:20:26.061Z,15.33
2019-05-22T01:22:59.402Z,15.37
2019-05-22T01:25:34.550Z,18.53
2019-05-22T01:28:10.765Z,15.60
2019-05-22T01:30:51.366Z,14.80
2019-05-22T01:33:43.683Z,18.17
2019-05-22T01:36:36.033Z,15.23
2019-05-22T01:39:26.397Z,17.87
2019-05-22T01:42:01.606Z,15.73
2019-05-22T01:44:34.872Z,15.53
2019-05-22T01:47:17.862Z,15.23
2019-05-22T01:49:54.642Z,18.00
2019-05-22T01:52:27.935Z,15.33
2019-05-22T01:55:03.644Z,17.17
2019-05-22T01:57:35.968Z,14.23
2019-05-22T02:00:12.878Z,16.30
2019-05-22T02:02:47.536Z,16.40
2019-05-22T02:05:19.228Z,15.17
2019-05-22T02:07:50.964Z,14.67
2019-05-22T02:10:28.346Z,16.37
2019-05-22T02:13:05.841Z,17.23
2019-05-22T02:15:37.478Z,14.73
2019-05-22T02:18:13.521Z,13.60
2019-05-22T02:20:47.175Z,15.03
2019-05-22T02:23:19.310Z,21.10
2019-05-22T02:25:51.273Z,15.93
2019-05-22T02:28:23.044Z,14.57
2019-05-22T02:30:55.716Z,14.07
2019-05-22T02:33:27.253Z,13.90
2019-05-22T02:36:00.515Z,14.50
2019-05-22T02:38:38.598Z,14.17
2019-05-22T02:41:14.363Z,14.50
2019-05-22T02:43:45.787Z,13.40
2019-05-22T02:46:18.767Z,14.33
2019-05-22T02:48:51.730Z,14.80
2019-05-22T02:51:28.867Z,14.83
2019-05-22T02:54:02.154Z,13.80
2019-05-22T02:56:36.255Z,13.27
2019-05-22T02:59:10.387Z,13.57
2019-05-22T03:01:43.010Z,13.03
2019-05-22T03:04:14.467Z,14.37
2019-05-22T03:06:46.078Z,13.87
2019-05-22T03:09:23.821Z,15.20
2019-05-22T03:12:07.087Z,16.03
2019-05-22T03:14:40.122Z,16.47
2019-05-22T03:17:31.752Z,17.30
2019-05-22T03:20:11.883Z,18.70
2019-05-22T03:23:40.854Z,20.50
2019-05-22T03:26:13.755Z,22.03
2019-05-22T03:28:46.018Z,23.53
2019-05-22T03:31:24.564Z,22.90
2019-05-22T03:33:56.559Z,21.87
2019-05-22T03:36:29.144Z,22.77
2019-05-22T03:39:00.316Z,24.77
2019-05-22T03:41:32.659Z,22.00
2019-05-22T03:44:05.673Z,22.40
2019-05-22T03:46:42.649Z,20.90
2019-05-22T03:49:29.137Z,21.40
2019-05-22T03:51:54.134Z,21.30
2019-05-22T03:54:27.101Z,22.07
2019-05-22T03:56:58.885Z,20.20
2019-05-22T03:59:31.032Z,20.60
2019-05-22T04:02:04.024Z,20.40
2019-05-22T04:04:39.596Z,19.97
2019-05-22T04:07:16.725Z,23.30
2019-05-22T04:09:49.759Z,21.53
2019-05-22T04:12:26.361Z,23.87
2019-05-22T04:14:58.628Z,22.97
2019-05-22T04:17:31.236Z,20.80
2019-05-22T04:20:02.402Z,22.10
2019-05-22T04:22:33.566Z,22.77
2019-05-22T04:25:04.991Z,22.17
2019-05-22T04:27:37.288Z,22.47
2019-05-22T04:30:12.093Z,22.00
2019-05-22T04:32:48.330Z,27.17
2019-05-22T04:35:20.952Z,22.47
2019-05-22T04:37:54.253Z,24.77
2019-05-22T04:40:57.004Z,23.63
2019-05-22T04:43:35.859Z,21.57
2019-05-22T04:46:11.844Z,22.10
2019-05-22T04:48:46.168Z,22.20
2019-05-22T04:51:27.146Z,22.37
2019-05-22T04:53:59.121Z,22.67
2019-05-22T04:56:30.528Z,24.47
2019-05-22T04:59:03.044Z,21.57
2019-05-22T05:01:34.295Z,21.50
2019-05-22T05:04:08.777Z,18.97
2019-05-22T05:06:40.396Z,21.67
2019-05-22T05:09:13.687Z,19.17
2019-05-22T05:11:45.947Z,22.30
2019-05-22T05:14:17.270Z,22.03
2019-05-22T05:16:49.143Z,24.33
2019-05-22T05:19:20.605Z,23.30
2019-05-22T05:21:51.644Z,20.87
2019-05-22T05:24:24.073Z,22.37
2019-05-22T05:26:55.890Z,22.73
2019-05-22T05:29:28.877Z,22.03
2019-05-22T05:32:01.589Z,20.83
2019-05-22T05:34:59.460Z,20.97
2019-05-22T05:37:35.394Z,22.43
2019-05-22T05:40:29.846Z,21.57
2019-05-22T05:43:02.177Z,21.00
2019-05-22T05:45:34.321Z,20.20
2019-05-22T05:48:08.457Z,19.17
2019-05-22T05:50:41.435Z,20.77
2019-05-22T05:53:19.395Z,21.47
2019-05-22T05:56:19.768Z,21.53
2019-05-22T05:58:50.963Z,23.70
2019-05-22T06:01:27.549Z,18.57
2019-05-22T06:04:13.437Z,17.00
2019-05-22T06:07:26.593Z,20.17
2019-05-22T06:10:32.034Z,20.70
2019-05-22T06:13:04.575Z,18.77
2019-05-22T06:16:12.241Z,22.13
2019-05-22T06:18:50.943Z,22.73
2019-05-22T06:21:23.636Z,16.60
2019-05-22T06:24:28.148Z,18.20
2019-05-22T06:27:32.414Z,18.70
2019-05-22T06:30:10.163Z,17.40
2019-05-22T06:33:31.456Z,17.23
2019-05-22T06:36:06.300Z,15.60
2019-05-22T06:39:07.818Z,17.13
2019-05-22T06:41:39.720Z,14.30
2019-05-22T06:44:44.088Z,16.00
2019-05-22T06:47:28.949Z,14.27
2019-05-22T06:50:10.862Z,12.33
2019-05-22T06:52:41.767Z,16.83
2019-05-22T06:55:15.394Z,15.73
2019-05-22T06:57:46.418Z,12.20
2019-05-22T07:00:21.883Z,12.67
2019-05-22T07:02:54.671Z,11.77
2019-05-22T07:05:30.000Z,10.97
2019-05-22T07:08:04.096Z,10.60
2019-05-22T07:10:43.651Z,10.97
2019-05-22T07:13:22.139Z,10.43
2019-05-22T07:15:54.271Z,9.93
2019-05-22T07:18:31.478Z,8.73
2019-05-22T07:21:03.985Z,10.00
2019-05-22T07:23:37.724Z,8.67
2019-05-22T07:26:11.145Z,9.03
2019-05-22T07:28:45.552Z,9.90
2019-05-22T07:31:19.141Z,9.27
2019-05-22T07:33:53.451Z,10.67
2019-05-22T07:36:28.009Z,11.70
2019-05-22T07:39:01.950Z,8.87
2019-05-22T07:41:33.438Z,9.13
2019-05-22T07:44:07.667Z,8.33
2019-05-22T07:46:44.096Z,8.17
2019-05-22T07:49:18.413Z,7.83
2019-05-22T07:52:00.606Z,8.13
2019-05-22T07:54:26.736Z,10.93
2019-05-22T07:56:58.318Z,10.70
2019-05-22T07:59:49.205Z,8.43
2019-05-22T08:02:23.331Z,8.50
2019-05-22T08:04:56.780Z,8.20
2019-05-22T08:07:35.283Z,9.90
2019-05-22T08:10:25.926Z,7.53
2019-05-22T08:13:00.882Z,8.23
2019-05-22T08:15:47.732Z,7.53
2019-05-22T08:18:22.410Z,7.03
2019-05-22T08:20:56.835Z,8.43
2019-05-22T08:23:30.748Z,7.97
2019-05-22T08:26:02.183Z,7.47
2019-05-22T08:28:38.837Z,6.90
2019-05-22T08:31:13.613Z,7.03
2019-05-22T08:33:52.187Z,7.60
2019-05-22T08:36:26.980Z,7.17
2019-05-22T08:39:04.167Z,10.00
2019-05-22T08:41:41.084Z,9.97
2019-05-22T08:44:17.534Z,8.70
2019-05-22T08:46:48.562Z,10.80
2019-05-22T08:49:24.477Z,10.90
2019-05-22T08:52:00.231Z,10.23
2019-05-22T08:54:48.041Z,9.30
2019-05-22T08:57:22.664Z,10.60
2019-05-22T08:59:55.058Z,8.00
2019-05-22T09:02:33.738Z,9.33
2019-05-22T09:05:06.847Z,7.83
2019-05-22T09:07:41.952Z,12.47
2019-05-22T09:10:16.842Z,12.73
2019-05-22T09:12:52.120Z,10.23
2019-05-22T09:15:25.605Z,11.93
2019-05-22T09:17:58.643Z,13.20
2019-05-22T09:20:46.424Z,11.90
2019-05-22T09:23:04.701Z,12.83
2019-05-22T09:25:39.282Z,11.67
2019-05-22T09:28:10.502Z,11.47
2019-05-22T09:30:58.631Z,10.77
2019-05-22T09:33:37.047Z,10.57
2019-05-22T09:36:11.526Z,10.30
2019-05-22T09:38:47.029Z,11.03
2019-05-22T09:41:27.201Z,11.63
2019-05-22T09:43:58.378Z,11.87
2019-05-22T09:46:36.772Z,11.07
2019-05-22T09:49:08.461Z,12.47
2019-05-22T09:51:42.542Z,13.13
2019-05-22T09:54:14.026Z,13.10
2019-05-22T09:56:45.041Z,18.93
2019-05-22T09:59:16.169Z,10.57
2019-05-22T10:01:47.297Z,13.03
2019-05-22T10:04:24.520Z,11.40
2019-05-22T10:06:59.134Z,11.63
2019-05-22T10:09:31.200Z,10.70
2019-05-22T10:12:03.090Z,10.87
2019-05-22T10:14:37.797Z,13.73
2019-05-22T10:17:12.226Z,13.67
2019-05-22T10:19:43.507Z,14.43
2019-05-22T10:22:15.294Z,12.03
2019-05-22T10:24:50.064Z,11.67
2019-05-22T10:27:19.857Z,10.93
2019-05-22T10:29:54.718Z,12.30
2019-05-22T10:32:31.914Z,9.80
2019-05-22T10:35:04.322Z,15.23
2019-05-22T10:37:40.316Z,9.23
2019-05-22T10:40:13.760Z,12.63
2019-05-22T10:42:53.182Z,13.60
2019-05-22T10:45:24.627Z,13.00
2019-05-22T10:47:59.913Z,18.00
2019-05-22T10:50:40.286Z,15.07
2019-05-22T10:53:33.091Z,13.67
2019-05-22T10:55:55.970Z,12.90
2019-05-22T10:58:28.352Z,12.20
2019-05-22T11:01:03.431Z,13.03
2019-05-22T11:03:53.817Z,12.53
2019-05-22T11:06:27.789Z,12.67
2019-05-22T11:08:59.480Z,13.67
2019-05-22T11:11:34.566Z,13.10
2019-05-22T11:14:09.793Z,14.23
2019-05-22T11:16:41.986Z,14.40
2019-05-22T11:19:17.949Z,14.20
2019-05-22T11:21:52.810Z,13.00
2019-05-22T11:24:24.480Z,12.43
2019-05-22T11:27:07.276Z,15.87
2019-05-22T11:29:38.822Z,13.50
2019-05-22T11:32:12.700Z,11.80
2019-05-22T11:34:44.026Z,11.80
2019-05-22T11:37:23.497Z,13.03
2019-05-22T11:39:59.830Z,12.33
2019-05-22T11:43:09.696Z,12.83
2019-05-22T11:46:49.743Z,12.50
2019-05-22T11:49:26.226Z,12.90
2019-05-22T11:51:59.911Z,12.40
2019-05-22T11:54:45.307Z,15.20
2019-05-22T11:57:18.102Z,15.73
2019-05-22T11:59:50.505Z,15.13
2019-05-22T12:02:28.739Z,14.00
2019-05-22T12:05:11.811Z,20.73
2019-05-22T12:07:56.300Z,15.80
2019-05-22T12:10:29.441Z,14.70
2019-05-22T12:13:01.606Z,13.97
2019-05-22T12:15:34.843Z,15.10
2019-05-22T12:18:07.203Z,13.47
2019-05-22T12:20:39.685Z,13.97
2019-05-22T12:23:15.143Z,12.53
2019-05-22T12:25:51.518Z,12.17
2019-05-22T12:28:22.563Z,14.43
2019-05-22T12:30:57.649Z,12.80
2019-05-22T12:33:34.358Z,14.77
2019-05-22T12:36:09.945Z,12.47
2019-05-22T12:38:42.709Z,12.73
2019-05-22T12:41:15.547Z,15.00
2019-05-22T12:43:50.389Z,13.87
2019-05-22T12:46:26.827Z,14.47
2019-05-22T12:48:59.274Z,14.17
2019-05-22T12:51:37.423Z,11.37
2019-05-22T12:54:11.948Z,12.33
2019-05-22T12:57:00.303Z,13.00
2019-05-22T12:59:35.647Z,12.10
2019-05-22T13:02:15.467Z,13.47
2019-05-22T13:04:56.227Z,11.20
2019-05-22T13:07:38.508Z,12.90
2019-05-22T13:10:19.548Z,12.17
2019-05-22T13:12:56.203Z,14.07
2019-05-22T13:15:32.938Z,14.47
2019-05-22T13:18:08.151Z,18.60
2019-05-22T13:20:49.643Z,14.13
2019-05-22T13:23:31.477Z,13.40
2019-05-22T13:26:04.781Z,14.30
2019-05-22T13:28:38.801Z,12.80
2019-05-22T13:31:10.304Z,16.47
2019-05-22T13:33:44.578Z,11.27
2019-05-22T13:36:21.778Z,10.90
2019-05-22T13:38:57.369Z,10.93
2019-05-22T13:41:38.764Z,12.07
2019-05-22T13:44:16.559Z,9.40
2019-05-22T13:46:52.540Z,12.77
2019-05-22T13:49:38.064Z,10.23
2019-05-22T13:52:16.442Z,9.77
2019-05-22T13:54:51.773Z,9.37
2019-05-22T13:57:25.463Z,11.73
2019-05-22T13:59:56.980Z,10.00
2019-05-22T14:02:30.233Z,10.03
2019-05-22T14:05:02.429Z,10.57
2019-05-22T14:07:37.023Z,11.80
2019-05-22T14:10:15.441Z,12.47
2019-05-22T14:12:48.049Z,14.50
2019-05-22T14:15:48.825Z,11.93
2019-05-22T14:18:09.659Z,11.30
2019-05-22T14:20:49.788Z,10.60
2019-05-22T14:23:21.328Z,10.80
2019-05-22T14:25:55.239Z,10.20
2019-05-22T14:28:31.452Z,8.97
2019-05-22T14:31:13.445Z,9.93
2019-05-22T14:33:44.260Z,8.27
2019-05-22T14:36:19.180Z,9.00
2019-05-22T14:38:58.438Z,7.50
2019-05-22T14:41:35.976Z,9.43
2019-05-22T14:44:12.688Z,8.63
2019-05-22T14:46:50.072Z,7.73
2019-05-22T14:49:24.462Z,7.90
2019-05-22T14:51:56.352Z,7.10
2019-05-22T14:54:31.767Z,9.73
2019-05-22T14:57:12.547Z,8.03
2019-05-22T14:59:53.359Z,10.27
2019-05-22T15:02:25.141Z,11.47
2019-05-22T15:05:02.656Z,10.20
2019-05-22T15:07:41.012Z,15.80
2019-05-22T15:10:20.366Z,10.43
2019-05-22T15:12:57.398Z,13.70
2019-05-22T15:15:31.802Z,11.50
2019-05-22T15:18:07.131Z,11.20
2019-05-22T15:20:54.912Z,10.73
2019-05-22T15:23:30.194Z,11.10
2019-05-22T15:26:04.848Z,9.80
2019-05-22T15:28:49.517Z,13.30
2019-05-22T15:31:29.497Z,11.97
2019-05-22T15:34:09.356Z,10.43
2019-05-22T15:36:45.357Z,10.47
2019-05-22T15:39:21.855Z,11.57
2019-05-22T15:41:56.676Z,9.33
2019-05-22T15:44:40.298Z,9.90
2019-05-22T15:50:44.190Z,9.03
2019-05-22T15:53:26.452Z,9.37
2019-05-22T15:56:09.573Z,8.43
2019-05-22T15:58:50.207Z,11.13
2019-05-22T16:01:30.821Z,7.80
2019-05-22T16:04:07.117Z,8.40
2019-05-22T16:06:41.098Z,7.20
2019-05-22T16:09:20.931Z,7.30
2019-05-22T16:11:57.010Z,6.50
2019-05-22T16:14:31.640Z,7.30
2019-05-22T16:17:09.080Z,6.50
2019-05-22T16:19:47.052Z,6.70
2019-05-22T16:22:29.108Z,5.87
2019-05-22T16:25:06.164Z,6.40
2019-05-22T16:27:38.774Z,6.10
2019-05-22T16:30:18.726Z,7.67
2019-05-22T16:32:51.131Z,7.40
2019-05-22T16:35:30.631Z,4.43
2019-05-22T16:38:16.373Z,5.40
2019-05-22T16:40:52.403Z,5.07
2019-05-22T16:43:47.419Z,5.23
2019-05-22T16:46:10.181Z,4.20
2019-05-22T16:48:45.036Z,5.00
2019-05-22T16:51:17.835Z,5.00
2019-05-22T16:54:00.801Z,4.73
2019-05-22T16:56:41.207Z,4.80
2019-05-22T16:59:15.157Z,5.63
2019-05-22T17:01:58.654Z,4.90
2019-05-22T17:04:25.068Z,4.97
2019-05-22T17:06:59.000Z,5.47
2019-05-22T17:09:33.416Z,4.67
2019-05-22T17:12:10.183Z,5.17
2019-05-22T17:14:56.883Z,5.67
2019-05-22T17:17:31.022Z,7.43
2019-05-22T17:20:07.004Z,5.07
2019-05-22T17:22:48.346Z,5.63
2019-05-22T17:25:24.082Z,7.47
2019-05-22T17:27:55.935Z,7.17
2019-05-22T17:30:28.670Z,7.47
2019-05-22T17:33:02.470Z,9.80
2019-05-22T17:35:34.381Z,7.80
2019-05-22T17:38:10.236Z,8.30
2019-05-22T17:40:42.702Z,7.77
2019-05-22T17:43:16.066Z,7.53
2019-05-22T17:45:51.852Z,7.77
2019-05-22T17:48:26.945Z,8.37
2019-05-22T17:51:03.319Z,7.67
2019-05-22T17:53:37.879Z,8.77
2019-05-22T17:56:11.882Z,8.07
2019-05-22T17:58:46.547Z,8.00
2019-05-22T18:01:26.394Z,8.30
2019-05-22T18:04:06.206Z,9.40
2019-05-22T18:06:44.588Z,8.10
2019-05-22T18:09:20.993Z,7.97
2019-05-22T18:11:58.826Z,7.40
2019-05-22T18:14:38.658Z,7.53
2019-05-22T18:17:39.246Z,7.67
2019-05-22T18:20:24.335Z,8.47
2019-05-22T18:23:08.940Z,7.27
2019-05-22T18:25:42.341Z,7.50
2019-05-22T18:28:21.597Z,7.73
2019-05-22T18:30:57.081Z,7.57
2019-05-22T18:33:36.161Z,8.87
2019-05-22T18:36:11.125Z,8.00
2019-05-22T18:38:48.426Z,8.53
2019-05-22T18:41:20.023Z,8.17
2019-05-22T18:43:59.247Z,7.23
2019-05-22T18:46:34.090Z,7.10
2019-05-22T18:49:20.458Z,8.63
2019-05-22T18:51:56.338Z,7.73
2019-05-22T18:54:35.577Z,8.70
2019-05-22T18:57:11.622Z,9.23
2019-05-22T19:00:03.803Z,9.73
2019-05-22T19:02:38.298Z,7.97
2019-05-22T19:05:11.806Z,11.93
2019-05-22T19:07:50.010Z,7.83
2019-05-22T19:10:27.179Z,11.93
2019-05-22T19:13:05.141Z,11.23
2019-05-22T19:15:48.728Z,9.07
2019-05-22T19:18:16.849Z,8.00
2019-05-22T19:20:48.279Z,11.17
2019-05-22T19:23:22.100Z,7.97
2019-05-22T19:25:54.585Z,9.03
2019-05-22T19:28:42.821Z,8.03
2019-05-22T19:31:03.135Z,8.40
2019-05-22T19:33:37.988Z,9.53
2019-05-22T19:36:13.909Z,9.37
2019-05-22T19:38:45.978Z,8.17
2019-05-22T19:41:19.289Z,8.27
2019-05-22T19:44:00.108Z,9.63
2019-05-22T19:46:32.704Z,9.50
2019-05-22T19:49:05.142Z,10.80
2019-05-22T19:51:39.826Z,10.30
2019-05-22T19:54:20.781Z,11.33
2019-05-22T19:56:54.321Z,8.70
2019-05-22T19:59:25.463Z,8.30
2019-05-22T20:01:58.251Z,8.93
2019-05-22T20:04:36.666Z,9.70
2019-05-22T20:10:08.022Z,14.87
2019-05-22T20:12:50.747Z,8.83
2019-05-22T20:15:33.550Z,9.30
2019-05-22T20:18:13.270Z,9.30
2019-05-22T20:20:46.435Z,8.03
2019-05-22T20:23:34.524Z,8.87
2019-05-22T20:26:02.367Z,10.37
2019-05-22T20:28:45.867Z,9.20
2019-05-22T20:31:23.594Z,9.20
2019-05-22T20:34:04.332Z,9.23
2019-05-22T20:36:41.092Z,11.17
2019-05-22T20:39:16.457Z,9.10
2019-05-22T20:41:48.528Z,10.20
2019-05-22T20:44:27.197Z,7.97
2019-05-22T20:47:03.226Z,8.70
2019-05-22T20:49:35.693Z,8.93
2019-05-22T20:52:14.190Z,8.17
2019-05-22T20:54:49.166Z,7.37
2019-05-22T20:57:27.487Z,7.67
2019-05-22T21:00:10.542Z,7.97
2019-05-22T21:03:04.751Z,7.87
2019-05-22T21:05:38.739Z,6.67
2019-05-22T21:08:13.601Z,7.33
2019-05-22T21:10:47.769Z,9.07
2019-05-22T21:13:20.458Z,7.27
2019-05-22T21:16:06.844Z,7.07
2019-05-22T21:18:43.142Z,7.13
2019-05-22T21:21:25.251Z,6.63
2019-05-22T21:24:11.177Z,9.80
2019-05-22T21:26:42.852Z,7.60
2019-05-22T21:29:24.471Z,6.77
2019-05-22T21:32:04.371Z,7.33
2019-05-22T21:34:35.352Z,7.30
2019-05-22T21:37:10.075Z,6.77
2019-05-22T21:39:44.014Z,6.67
2019-05-22T21:42:16.821Z,6.97
2019-05-22T21:44:48.261Z,7.67
2019-05-22T21:47:27.899Z,7.10
2019-05-22T21:50:00.137Z,7.47
2019-05-22T21:52:32.279Z,8.80
2019-05-22T21:55:14.419Z,9.03
2019-05-22T21:57:50.371Z,7.60
2019-05-22T22:00:43.916Z,7.77
2019-05-22T22:03:19.264Z,8.97
2019-05-22T22:05:51.285Z,8.60
2019-05-22T22:08:26.769Z,7.37
2019-05-22T22:10:59.740Z,7.93
2019-05-22T22:13:38.295Z,6.87
2019-05-22T22:16:10.109Z,10.80
2019-05-22T22:18:41.757Z,10.77
2019-05-22T22:21:14.633Z,9.07
2019-05-22T22:23:53.862Z,8.27
2019-05-22T22:26:28.860Z,7.10
2019-05-22T22:29:01.311Z,8.27
2019-05-22T22:31:40.277Z,6.83
2019-05-22T22:34:27.360Z,8.33
2019-05-22T22:37:03.301Z,7.40
2019-05-22T22:39:45.023Z,6.60
2019-05-22T22:42:18.430Z,6.83
2019-05-22T22:44:54.523Z,5.97
2019-05-22T22:47:47.472Z,6.77
2019-05-22T22:50:22.414Z,5.97
2019-05-22T22:52:54.566Z,6.60
2019-05-22T22:55:32.811Z,6.83
2019-05-22T22:58:17.287Z,6.90
2019-05-22T23:00:49.067Z,6.40
2019-05-22T23:03:23.691Z,6.83
2019-05-22T23:06:04.104Z,7.00
2019-05-22T23:08:37.892Z,6.70
2019-05-22T23:11:10.406Z,7.47
2019-05-22T23:13:41.869Z,6.10
2019-05-22T23:16:13.352Z,7.03
2019-05-22T23:19:28.175Z,7.70
2019-05-22T23:21:58.830Z,9.37
2019-05-22T23:24:31.290Z,7.90
2019-05-22T23:27:03.822Z,8.10
2019-05-22T23:29:34.981Z,8.03
2019-05-22T23:32:14.943Z,6.00
2019-05-22T23:34:46.917Z,6.70
2019-05-22T23:37:21.310Z,7.47
2019-05-22T23:39:57.353Z,7.47
2019-05-22T23:42:33.005Z,6.10
2019-05-22T23:45:07.152Z,8.20
2019-05-22T23:48:05.827Z,7.10
2019-05-22T23:50:38.412Z,6.40
2019-05-22T23:53:12.826Z,11.20
2019-05-22T23:55:45.594Z,6.90
2019-05-22T23:58:20.423Z,9.93
